Flight Track Log - Related Links

Times and Time Zones

All times are in EDT time to prevent confusion due to time zone crossing. See the UAL515 flight status page for this flight to view local times or setup timezone preferences in your user account.

Time Position Orientation Groundspeed Altitude Reporting Facility
EDT Latitude Longitude Course Direction KTS MPH feet Rate Location/Type
02:03PM 40.6667 -74.1833 194° South 161 185 1,200  Level New York TRACON
02:04PM 40.6167 -74.2000 194° South 219 252 2,600 2,050 Climbing New York TRACON
02:05PM 40.6333 -74.2833 285° West 263 303 5,300 3,051 Climbing New York TRACON
02:06PM 40.6461 -74.3814 280° West 265 305 8,600 2,644 Climbing New York Center
02:07PM 40.6703 -74.4756 289° West 284 327 10,500 1,438 Climbing New York Center
02:08PM 40.6828 -74.5994 278° West 325 374 11,500 1,667 Climbing New York Center
02:10PM 40.6836 -74.8869 270° West 393 452 15,500 1,867 Climbing New York Center
02:11PM 40.6828 -75.0292 270° West 393 452 17,100 1,636 Climbing New York Center
02:12PM 40.6450 -75.1525 248° West 402 463 18,800 1,550 Climbing New York Center
02:13PM 40.5878 -75.2883 241° Southwest 407 468 20,200 1,537 Climbing New York Center
02:14PM 40.5261 -75.4208 239° Southwest 419 482 21,900 1,613 Climbing New York Center
02:15PM 40.4667 -75.5558 240° Southwest 430 495 23,400 1,350 Climbing New York Center
02:16PM 40.4050 -75.6906 239° Southwest 435 501 24,600 893 Climbing New York Center
02:17PM 40.3386 -75.8303 238° Southwest 435 501 25,200 800 Climbing New York Center
02:18PM 40.2608 -75.9850 237° Southwest 450 518 26,200 1,050 Climbing New York Center
02:19PM 40.1961 -76.1297 240° Southwest 461 531 27,300 1,322 Climbing New York Center
02:20PM 40.1292 -76.2711 238° Southwest 462 532 28,800 1,361 Climbing New York Center
02:21PM 40.0683 -76.4103 240° Southwest 457 526 30,000 1,100 Climbing New York Center
02:22PM 40.0033 -76.5458 238° Southwest 452 520 31,000 686 Climbing New York Center
02:24PM 39.8911 -76.7869 239° Southwest 435 501 32,000 335 Climbing Washington Center
02:25PM 39.8281 -76.9219 239° Southwest 435 501 32,000  Level Washington Center
02:26PM 39.7511 -77.0825 238° Southwest 436 502 32,000  Level Washington Center
02:27PM 39.6900 -77.2169 239° Southwest 436 502 32,000  Level Washington Center
02:28PM 39.6258 -77.3497 238° Southwest 437 503 32,000  Level Washington Center
02:29PM 39.5625 -77.4833 238° Southwest 437 503 32,000  Level Washington Center
02:30PM 39.4992 -77.6147 238° Southwest 436 502 32,000  Level Washington Center
02:31PM 39.4233 -77.7722 238° Southwest 435 501 32,000  Level Washington Center
02:32PM 39.3622 -77.9047 239° Southwest 435 501 32,000  Level Washington Center
02:33PM 39.3092 -78.0417 243° Southwest 430 495 32,000  Level Washington Center
02:34PM 39.2547 -78.1808 243° Southwest 431 496 32,000  Level Washington Center
02:35PM 39.1986 -78.3186 242° Southwest 433 498 32,000  Level Washington Center
02:36PM 39.1319 -78.4831 242° Southwest 434 499 32,000  Level Washington Center
02:37PM 39.0761 -78.6222 243° Southwest 435 501 32,000 144 Level Washington Center
02:38PM 39.0200 -78.7589 242° Southwest 435 501 32,300 390 Climbing Washington Center
02:39PM 38.9636 -78.8967 242° Southwest 435 501 32,800 336 Climbing Washington Center
02:40PM 38.9094 -79.0314 243° Southwest 431 496 33,000 333 Climbing Washington Center
02:41PM 38.8453 -79.1925 243° Southwest 424 488 33,500 492 Climbing Washington Center
02:42PM 38.8161 -79.3358 255° West 420 483 34,000 242 Climbing Washington Center
02:43PM 38.7900 -79.4778 257° West 412 474 34,000  Level Washington Center
02:44PM 38.7617 -79.6325 257° West 413 475 34,000  Level Washington Center
02:46PM 38.7350 -79.7756 257° West 412 474 34,000  Level Washington Center
02:47PM 38.7031 -79.9506 257° West 414 476 34,000  Level Indianapolis Center
02:48PM 38.6767 -80.0936 257° West 414 476 34,000  Level Indianapolis Center
02:49PM 38.6494 -80.2378 256° West 414 476 34,000  Level Indianapolis Center
02:50PM 38.6219 -80.3825 256° West 415 478 34,000  Level Indianapolis Center
02:51PM 38.5947 -80.5267 256° West 415 478 34,000  Level Indianapolis Center
02:52PM 38.5669 -80.6714 256° West 416 479 34,000  Level Indianapolis Center
02:53PM 38.5378 -80.8169 256° West 417 480 34,000  Level Indianapolis Center
02:54PM 38.5042 -80.9897 256° West 418 481 34,000  Level Indianapolis Center
02:55PM 38.4761 -81.1342 256° West 418 481 34,000  Level Indianapolis Center
02:56PM 38.4478 -81.2778 256° West 417 480 34,000  Level Indianapolis Center
02:57PM 38.4194 -81.4214 256° West 416 479 34,000  Level Indianapolis Center
02:58PM 38.3900 -81.5642 255° West 416 479 34,000  Level Indianapolis Center
02:59PM 38.3622 -81.7064 256° West 415 478 34,000  Level Indianapolis Center
03:00PM 38.3294 -81.8475 254° West 414 476 34,000  Level Indianapolis Center
03:01PM 38.2881 -81.9875 249° West 416 479 34,000  Level Indianapolis Center
03:02PM 38.2411 -82.1567 251° West 418 481 34,000  Level Indianapolis Center
03:03PM 38.2003 -82.2992 250° West 425 489 34,000  Level Indianapolis Center
03:04PM 38.1594 -82.4444 250° West 432 497 34,000  Level Indianapolis Center
03:05PM 38.1181 -82.5872 250° West 432 497 34,000  Level Indianapolis Center
03:06PM 38.0756 -82.7358 250° West 442 509 34,000  Level Indianapolis Center
03:07PM 38.0331 -82.8819 250° West 442 509 34,000  Level Indianapolis Center
03:08PM 37.9842 -83.0503 250° West 440 506 34,000  Level Indianapolis Center
03:09PM 37.9428 -83.1936 250° West 436 502 34,000  Level Indianapolis Center
03:10PM 37.9000 -83.3375 249° West 436 502 34,000  Level Indianapolis Center
03:11PM 37.8586 -83.4786 250° West 433 498 34,000  Level Indianapolis Center
03:12PM 37.8167 -83.6186 249° West 431 496 34,000  Level Indianapolis Center
03:13PM 37.7678 -83.7856 250° West 432 497 34,000  Level Indianapolis Center
03:15PM 37.7250 -83.9272 249° West 432 497 34,000  Level Indianapolis Center
03:16PM 37.6808 -84.0700 249° West 432 497 34,000  Level Indianapolis Center
03:17PM 37.6383 -84.2117 249° West 433 498 34,000  Level Indianapolis Center
03:18PM 37.5944 -84.3531 249° West 433 498 34,000  Level Indianapolis Center
03:19PM 37.5511 -84.4939 249° West 433 498 34,000  Level Indianapolis Center
03:20PM 37.5008 -84.6572 249° West 431 496 34,000  Level Indianapolis Center
03:21PM 37.4575 -84.7975 249° West 431 496 34,000  Level Indianapolis Center
03:22PM 37.4131 -84.9386 248° West 431 496 34,000  Level Indianapolis Center
03:23PM 37.3694 -85.0778 249° West 431 496 34,000  Level Indianapolis Center
03:24PM 37.3250 -85.2194 249° West 431 496 34,000  Level Indianapolis Center
03:25PM 37.2806 -85.3575 248° West 431 496 34,000  Level Indianapolis Center
03:26PM 37.2317 -85.5133 249° West 430 495 34,000  Level Indianapolis Center
03:27PM 37.1858 -85.6539 248° West 430 495 34,000  Level Indianapolis Center
03:28PM 37.1414 -85.7936 248° West 430 495 34,000  Level Indianapolis Center
03:29PM 37.0947 -85.9336 247° West 430 495 34,000  Level Indianapolis Center
03:29PM 37.0653 -86.0264 248° West 431 496 34,000  Level Memphis Center
03:31PM 37.0206 -86.1658 248° West 431 496 34,000  Level Memphis Center
03:32PM 36.9756 -86.3031 248° West 429 494 34,000  Level Memphis Center
03:33PM 36.9297 -86.4428 248° West 429 494 34,000  Level Memphis Center
03:34PM 36.8811 -86.5794 246° West 429 494 34,000  Level Memphis Center
03:35PM 36.8311 -86.7167 246° West 429 494 34,000  Level Memphis Center
03:36PM 36.7742 -86.8758 246° West 430 495 34,000  Level Memphis Center
03:37PM 36.7247 -87.0119 246° West 430 495 34,000  Level Memphis Center
03:38PM 36.6758 -87.1478 246° West 430 495 34,000  Level Memphis Center
03:39PM 36.6258 -87.2825 245° Southwest 430 495 34,000  Level Memphis Center
03:40PM 36.5761 -87.4167 245° Southwest 429 494 34,000  Level Memphis Center
03:41PM 36.5261 -87.5508 245° Southwest 429 494 34,000  Level Memphis Center
03:42PM 36.4681 -87.7075 245° Southwest 428 493 34,000  Level Memphis Center
03:43PM 36.4175 -87.8419 245° Southwest 428 493 34,000  Level Memphis Center
03:44PM 36.3681 -87.9758 245° Southwest 427 491 34,000  Level Memphis Center
03:45PM 36.3172 -88.1100 245° Southwest 427 491 34,000  Level Memphis Center
03:46PM 36.2667 -88.2431 245° Southwest 427 491 34,000  Level Memphis Center
03:47PM 36.2147 -88.3769 244° Southwest 427 491 34,000  Level Memphis Center
03:48PM 36.1625 -88.5147 245° Southwest 434 499 34,000  Level Memphis Center
03:49PM 36.0983 -88.6800 244° Southwest 438 504 34,000  Level Memphis Center
03:50PM 36.0458 -88.8181 245° Southwest 440 506 34,000  Level Memphis Center
03:51PM 35.9922 -88.9550 244° Southwest 440 506 34,000  Level Memphis Center
03:52PM 35.9386 -89.0917 244° Southwest 440 506 34,000  Level Memphis Center
03:53PM 35.8858 -89.2275 244° Southwest 440 506 34,000 -48 Level Memphis Center
03:54PM 35.8328 -89.3622 244° Southwest 438 504 33,900  Descending Memphis Center
03:55PM 35.7794 -89.4992 244° Southwest 438 504 34,000 435 Climbing Memphis Center
03:56PM 35.7142 -89.6633 244° Southwest 440 506 34,800 871 Climbing Memphis Center
03:57PM 35.6614 -89.7983 244° Southwest 440 506 35,800 581 Climbing Memphis Center
03:58PM 35.6094 -89.9311 244° Southwest 439 505 36,000 96 Climbing Memphis Center
04:00PM 35.5564 -90.0611 243° Southwest 433 498 36,000  Level Memphis Center
04:01PM 35.5033 -90.1947 244° Southwest 433 498 36,000  Level Memphis Center
04:02PM 35.4397 -90.3525 244° Southwest 434 499 36,000 -48 Level Memphis Center
04:03PM 35.3861 -90.4822 243° Southwest 433 498 35,900  Descending Memphis Center
04:04PM 35.3325 -90.6144 244° Southwest 433 498 36,000 48 Climbing Memphis Center
04:05PM 35.2786 -90.7469 244° Southwest 434 499 36,000  Level Memphis Center
04:06PM 35.2239 -90.8792 243° Southwest 434 499 36,000  Level Memphis Center
04:07PM 35.1694 -91.0128 244° Southwest 436 502 36,000  Level Memphis Center
04:08PM 35.1031 -91.1719 243° Southwest 439 505 36,000  Level Memphis Center
04:09PM 35.0483 -91.3053 243° Southwest 439 505 36,000  Level Memphis Center
04:10PM 34.9875 -91.4467 242° Southwest 440 506 36,000  Level Memphis Center
04:11PM 34.9314 -91.5797 243° Southwest 441 507 36,000  Level Memphis Center
04:12PM 34.8797 -91.7028 243° Southwest 441 507 36,000  Level Memphis Center
04:13PM 34.8206 -91.8456 243° Southwest 441 507 36,000  Level Memphis Center
04:14PM 34.7639 -91.9786 243° Southwest 441 507 36,000  Level Memphis Center
04:15PM 34.6956 -92.1372 242° Southwest 441 507 36,000  Level Memphis Center
04:16PM 34.6522 -92.2778 249° West 446 513 36,000  Level Memphis Center
04:17PM 34.6153 -92.4189 252° West 442 509 36,000  Level Memphis Center
04:18PM 34.5769 -92.5617 252° West 442 509 36,000  Level Memphis Center
04:19PM 34.5394 -92.7036 252° West 442 509 36,000  Level Memphis Center
04:20PM 34.5008 -92.8458 252° West 442 509 36,000  Level Memphis Center
04:21PM 34.4556 -93.0156 252° West 442 509 36,000  Level Memphis Center
04:22PM 34.4175 -93.1567 252° West 442 509 36,000  Level Memphis Center
04:23PM 34.3797 -93.2969 252° West 441 507 36,000  Level Memphis Center
04:24PM 34.3419 -93.4364 252° West 441 507 36,000  Level Memphis Center
04:26PM 34.2686 -93.7056 252° West 439 505 36,000  Level Fort Worth Center
04:27PM 34.2314 -93.8428 252° West 438 504 36,000  Level Fort Worth Center
04:28PM 34.1928 -93.9792 251° West 434 499 36,000 -97 Level Fort Worth Center
04:29PM 34.1544 -94.1181 252° West 435 501 35,800 -528 Descending Fort Worth Center
04:30PM 34.1156 -94.2558 251° West 437 503 34,900 -1,008 Descending Fort Worth Center
04:31PM 34.0686 -94.4253 252° West 445 512 33,700 -823 Descending Fort Worth Center
04:32PM 34.0300 -94.5722 252° West 459 528 33,200 -484 Descending Fort Worth Center
04:33PM 33.9942 -94.7186 254° West 460 529 32,700 -677 Descending Fort Worth Center
04:35PM 33.9433 -94.8622 247° West 466 536 31,800 -912 Descending Fort Worth Center
04:36PM 33.8989 -95.0092 250° West 467 537 30,800 -1,008 Descending Fort Worth Center
04:37PM 33.8456 -95.1872 250° West 471 542 29,700 -1,016 Descending Fort Worth Center
04:38PM 33.8019 -95.3331 250° West 470 541 28,700 -1,194 Descending Fort Worth Center
04:40PM 33.7194 -95.6208 251° West 456 525 26,000 -1,806 Descending Fort Worth Center
04:41PM 33.6783 -95.7661 251° West 458 527 23,100 -2,952 Descending Fort Worth Center
04:42PM 33.6383 -95.9417 255° West 451 519 19,900 -2,880 Descending Fort Worth Center
04:43PM 33.5903 -96.0733 246° West 444 511 17,100 -2,880 Descending Fort Worth Center
04:44PM 33.5444 -96.2083 248° West 410 472 13,900 -2,952 Descending Fort Worth Center
04:45PM 33.4764 -96.3053 230° Southwest 385 443 11,000 -1,403 Descending Fort Worth Center
04:46PM 33.4031 -96.3925 225° Southwest 346 398 11,000 -290 Level Fort Worth Center
04:47PM 33.3494 -96.4647 228° Southwest 292 336 10,400 -1,065 Descending Fort Worth Center
04:48PM 33.3169 -96.5575 247° West 284 327 8,800 -1,488 Descending Fort Worth Center
04:49PM 33.2867 -96.6428 247° West 282 325 7,300 -1,584 Descending Fort Worth Center
04:50PM 33.2544 -96.7306 246° West 273 314 5,500 -1,113 Descending Fort Worth Center
04:51PM 33.2242 -96.8125 246° West 273 314 5,000 -242 Descending Fort Worth Center
04:52PM 33.1872 -96.8978 243° Southwest 275 316 5,000 -532 Level Fort Worth Center
04:53PM 33.1472 -96.9717 237° Southwest 268 308 3,900 -960 Descending Fort Worth Center
04:54PM 33.0861 -97.0097 208° Southwest 241 277 3,000 -624 Descending Fort Worth Center
04:55PM 33.0278 -97.0219 190° South 214 246 2,600 -581 Descending Fort Worth Center
04:56PM 32.9747 -97.0261 184° South 178 205 1,800 -774 Descending Fort Worth Center
04:57PM 32.9375 -97.0264 180° South 136 157 1,000 -629 Descending Fort Worth Center
04:58PM 32.8961 -97.0256 179° South 134 154 500 -484 Descending Fort Worth Center
05:00PM 32.8833 -97.0333 185° South  Level FlightAware Approximate

Login

Don't have an account? Register now (free) for customized features, flight alerts, and more!